Torrevieja, Spain
Current Conditions -  °F | °C
As of 8:00 PM on Monday 20 Oct 2014 (Local Time) from LELC Reporting Station
Broken Clouds Broken Clouds  
Wind Chill: 70°   Ceiling: 800
Heat Index: 70°   Visibility: 6mi
Dew Point: 68°   Wind: 7mph
Humidity: 94%   Direction: 40°NE
Pressure: 30.12"   Gusts: NA
Location:  37.98°N, 0.68°W
Report Text: LELC 201800Z 04006KT 010V070 9000 BKN008 21/20 Q1020 NOSIG
Loading
Personal Weather Stations






























Interactive Weather Map
Tropical Storm Tracking
New forecast layout! Learn more

10-Day Weather Forecast

Advertisements
Track Severe Weather on mobile